createdAt,value
2022-11-02T00:01:41.303Z,101407.09
2022-11-02T00:04:10.159Z,101411.56
2022-11-02T00:06:37.242Z,101405.63
2022-11-02T00:09:04.706Z,101407.50
2022-11-02T00:11:31.682Z,101402.59
2022-11-02T00:13:58.679Z,101409.97
2022-11-02T00:16:26.605Z,101401.53
2022-11-02T00:18:59.308Z,101399.72
2022-11-02T00:21:28.554Z,101390.72
2022-11-02T00:23:58.644Z,101388.84
2022-11-02T00:26:27.973Z,101382.50
2022-11-02T00:28:55.627Z,101379.41
2022-11-02T00:31:22.599Z,101385.16
2022-11-02T00:33:49.677Z,101383.34
2022-11-02T00:36:17.199Z,101381.28
2022-11-02T00:38:45.489Z,101384.56
2022-11-02T00:41:12.816Z,101366.31
2022-11-02T00:43:39.814Z,101371.88
2022-11-02T00:46:06.745Z,101376.75
2022-11-02T00:48:33.700Z,101373.47
2022-11-02T00:51:00.681Z,101366.91
2022-11-02T00:53:28.141Z,101370.19
2022-11-02T00:55:56.677Z,101371.00
2022-11-02T00:58:23.613Z,101372.84
2022-11-02T01:00:50.570Z,101369.00
2022-11-02T01:03:17.538Z,101368.97
2022-11-02T01:05:44.513Z,101356.28
2022-11-02T01:08:11.727Z,101363.88
2022-11-02T01:10:40.629Z,101362.41
2022-11-02T01:13:12.255Z,101356.69
2022-11-02T01:15:39.340Z,101347.28
2022-11-02T01:18:07.043Z,101342.34
2022-11-02T01:20:34.371Z,101337.88
2022-11-02T01:23:01.304Z,101341.34
2022-11-02T01:25:28.329Z,101338.47
2022-11-02T01:27:55.301Z,101324.94
2022-11-02T01:30:23.601Z,101318.63
2022-11-02T01:32:50.531Z,101334.59
2022-11-02T01:35:17.537Z,101329.66
2022-11-02T01:37:44.526Z,101337.41
2022-11-02T01:40:12.283Z,101332.91
2022-11-02T01:42:39.287Z,101317.34
2022-11-02T01:45:07.829Z,101322.28
2022-11-02T01:47:42.178Z,101325.13
2022-11-02T01:50:14.831Z,101325.75
2022-11-02T01:52:41.853Z,101315.72
2022-11-02T01:55:16.305Z,101310.41
2022-11-02T01:57:48.027Z,101314.50
2022-11-02T02:00:18.501Z,101304.69
2022-11-02T02:02:54.344Z,101312.06
2022-11-02T02:05:24.630Z,101315.56
2022-11-02T02:07:52.590Z,101307.75
2022-11-02T02:10:19.917Z,101307.13
2022-11-02T02:12:47.960Z,101300.00
2022-11-02T02:15:15.658Z,101303.03
2022-11-02T02:17:52.892Z,101303.66
2022-11-02T02:20:42.062Z,101295.66
2022-11-02T02:24:04.434Z,101288.09
2022-11-02T02:27:02.833Z,101288.28
2022-11-02T02:29:44.013Z,101287.03
2022-11-02T02:32:20.122Z,101286.44
2022-11-02T02:34:54.785Z,101282.16
2022-11-02T02:37:31.241Z,101278.25
2022-11-02T02:40:04.383Z,101276.84
2022-11-02T02:42:40.233Z,101271.06
2022-11-02T02:45:16.402Z,101278.44
2022-11-02T02:47:49.682Z,101277.03
2022-11-02T02:50:25.284Z,101267.81
2022-11-02T02:52:55.257Z,101267.41
2022-11-02T02:55:28.038Z,101275.19
2022-11-02T02:57:58.227Z,101279.91
2022-11-02T03:00:26.949Z,101278.25
2022-11-02T03:03:01.035Z,101281.13
2022-11-02T03:05:32.416Z,101277.22
2022-11-02T03:08:05.249Z,101273.34
2022-11-02T03:10:41.857Z,101276.22
2022-11-02T03:13:23.809Z,101266.59
2022-11-02T03:15:59.638Z,101273.34
2022-11-02T03:18:44.092Z,101274.38
2022-11-02T03:21:25.381Z,101273.13
2022-11-02T03:23:59.676Z,101283.56
2022-11-02T03:26:33.114Z,101280.28
2022-11-02T03:29:09.525Z,101290.31
2022-11-02T03:31:44.958Z,101290.75
2022-11-02T03:34:26.663Z,101287.44
2022-11-02T03:37:02.701Z,101290.53
2022-11-02T03:39:36.453Z,101289.53
2022-11-02T03:42:07.236Z,101296.06
2022-11-02T03:44:39.131Z,101293.63
2022-11-02T03:47:13.147Z,101290.34
2022-11-02T03:49:42.740Z,101296.88
2022-11-02T03:52:18.738Z,101300.56
2022-11-02T03:54:55.995Z,101301.22
2022-11-02T03:57:31.196Z,101301.41
2022-11-02T04:00:08.915Z,101301.00
2022-11-02T04:02:39.752Z,101296.47
2022-11-02T04:05:07.960Z,101297.72
2022-11-02T04:07:59.632Z,101302.63
2022-11-02T04:10:26.931Z,101297.69
2022-11-02T04:13:12.798Z,101301.78
2022-11-02T04:15:40.122Z,101311.59
2022-11-02T04:18:27.320Z,101315.25
2022-11-02T04:20:54.291Z,101311.09
2022-11-02T04:23:39.863Z,101313.56
2022-11-02T04:26:06.844Z,101315.63
2022-11-02T04:28:33.855Z,101312.94
2022-11-02T04:31:00.920Z,101306.63
2022-11-02T04:33:35.277Z,101316.50
2022-11-02T04:36:06.376Z,101329.22
2022-11-02T04:38:43.099Z,101332.06
2022-11-02T04:41:31.811Z,101326.28
2022-11-02T04:43:59.086Z,101328.75
2022-11-02T04:46:28.739Z,101333.84
2022-11-02T04:48:57.324Z,101332.22
2022-11-02T04:51:27.322Z,101326.28
2022-11-02T04:53:56.646Z,101333.69
2022-11-02T04:56:24.579Z,101329.19
2022-11-02T04:58:53.753Z,101339.22
2022-11-02T05:01:23.298Z,101327.53
2022-11-02T05:03:52.652Z,101337.81
2022-11-02T05:06:23.426Z,101316.13
2022-11-02T05:08:50.776Z,101317.34
2022-11-02T05:11:17.825Z,101315.31
2022-11-02T05:13:45.390Z,101311.19
2022-11-02T05:16:15.329Z,101306.88
2022-11-02T05:18:42.586Z,101308.91
2022-11-02T05:21:12.048Z,101312.38
2022-11-02T05:23:40.423Z,101315.25
2022-11-02T05:26:11.518Z,101311.97
2022-11-02T05:28:38.544Z,101314.41
2022-11-02T05:31:06.425Z,101310.91
2022-11-02T05:33:34.054Z,101300.88
2022-11-02T05:36:01.547Z,101308.66
2022-11-02T05:38:29.071Z,101305.97
2022-11-02T05:40:59.677Z,101313.56
2022-11-02T05:43:27.112Z,101326.41
2022-11-02T05:45:56.300Z,101322.53
2022-11-02T05:48:24.932Z,101327.41
2022-11-02T05:50:55.870Z,101330.63
2022-11-02T05:53:23.314Z,101333.06
2022-11-02T05:55:51.672Z,101334.47
2022-11-02T05:58:19.971Z,101339.16
2022-11-02T06:00:46.941Z,101334.25
2022-11-02T06:03:14.018Z,101343.88
2022-11-02T06:05:41.006Z,101331.19
2022-11-02T06:08:08.057Z,101332.25
2022-11-02T06:10:35.317Z,101342.66
2022-11-02T06:13:03.770Z,101342.06
2022-11-02T06:15:32.826Z,101341.25
2022-11-02T06:18:00.009Z,101332.66
2022-11-02T06:20:27.052Z,101337.59
2022-11-02T06:22:54.330Z,101349.00
2022-11-02T06:25:21.361Z,101343.28
2022-11-02T06:27:53.136Z,101341.59
2022-11-02T06:30:21.379Z,101341.63
2022-11-02T06:32:51.505Z,101341.81
2022-11-02T06:35:21.516Z,101347.38
2022-11-02T06:37:48.915Z,101353.31
2022-11-02T06:40:17.119Z,101346.56
2022-11-02T06:43:03.487Z,101357.69
2022-11-02T06:45:32.605Z,101349.03
2022-11-02T06:48:01.090Z,101357.19
2022-11-02T06:50:30.524Z,101346.66
2022-11-02T06:52:57.504Z,101352.59
2022-11-02T06:55:24.672Z,101363.00
2022-11-02T06:57:51.619Z,101360.56
2022-11-02T07:00:21.105Z,101359.34
2022-11-02T07:03:02.130Z,101360.78
2022-11-02T07:05:29.753Z,101357.91
2022-11-02T07:07:57.440Z,101369.59
2022-11-02T07:10:26.337Z,101368.38
2022-11-02T07:12:54.228Z,101369.41
2022-11-02T07:15:22.365Z,101365.78
2022-11-02T07:17:49.384Z,101364.78
2022-11-02T07:20:18.151Z,101373.81
2022-11-02T07:22:53.019Z,101381.63
2022-11-02T07:25:19.995Z,101380.00
2022-11-02T07:27:46.971Z,101387.78
2022-11-02T07:30:14.154Z,101390.66
2022-11-02T07:32:41.853Z,101390.50
2022-11-02T07:35:11.600Z,101405.03
2022-11-02T07:37:40.237Z,101400.94
2022-11-02T07:40:10.961Z,101402.97
2022-11-02T07:42:45.369Z,101407.91
2022-11-02T07:45:12.976Z,101402.19
2022-11-02T07:47:44.973Z,101403.81
2022-11-02T07:50:12.745Z,101412.41
2022-11-02T07:52:49.759Z,101417.34
2022-11-02T07:55:19.413Z,101424.47
2022-11-02T07:57:53.931Z,101427.56
2022-11-02T08:00:21.244Z,101433.28
2022-11-02T08:02:48.299Z,101433.09
2022-11-02T08:05:15.634Z,101443.53
2022-11-02T08:07:42.704Z,101447.41
2022-11-02T08:10:11.152Z,101445.16
2022-11-02T08:12:38.301Z,101455.41
2022-11-02T08:15:07.796Z,101460.16
2022-11-02T08:17:34.944Z,101451.31
2022-11-02T08:20:01.944Z,101454.19
2022-11-02T08:22:28.881Z,101455.81
2022-11-02T08:24:55.862Z,101459.09
2022-11-02T08:27:24.260Z,101469.94
2022-11-02T08:29:51.354Z,101467.47
2022-11-02T08:32:18.313Z,101464.59
2022-11-02T08:34:45.260Z,101472.75
2022-11-02T08:37:12.260Z,101477.25
2022-11-02T08:39:39.576Z,101480.69
2022-11-02T08:42:06.761Z,101481.81
2022-11-02T08:44:40.023Z,101478.50
2022-11-02T08:47:09.737Z,101482.69
2022-11-02T08:49:36.996Z,101479.50
2022-11-02T08:52:04.227Z,101486.41
2022-11-02T08:54:31.175Z,101490.78
2022-11-02T08:56:58.227Z,101486.69
2022-11-02T08:59:25.370Z,101503.41
2022-11-02T09:01:53.799Z,101495.91
2022-11-02T09:04:21.226Z,101499.19
2022-11-02T09:06:48.177Z,101500.50
2022-11-02T09:09:15.485Z,101495.81
2022-11-02T09:11:42.746Z,101498.91
2022-11-02T09:14:09.967Z,101508.44
2022-11-02T09:16:41.245Z,101504.06
2022-11-02T09:19:10.554Z,101503.25
2022-11-02T09:21:37.726Z,101512.47
2022-11-02T09:24:05.780Z,101507.47
2022-11-02T09:26:35.950Z,101515.72
2022-11-02T09:29:03.211Z,101523.59
2022-11-02T09:31:30.218Z,101523.31
2022-11-02T09:33:57.313Z,101520.50
2022-11-02T09:36:25.741Z,101531.72
2022-11-02T09:38:52.790Z,101531.81
2022-11-02T09:41:33.766Z,101534.34
2022-11-02T09:44:09.089Z,101544.84
2022-11-02T09:46:40.530Z,101537.66
2022-11-02T09:49:15.758Z,101556.56
2022-11-02T09:51:48.759Z,101546.28
2022-11-02T09:54:30.083Z,101548.31
2022-11-02T09:57:04.907Z,101553.66
2022-11-02T09:59:33.216Z,101572.09
2022-11-02T10:02:14.027Z,101567.59
2022-11-02T10:05:10.453Z,101592.47
2022-11-02T10:08:02.357Z,101590.22
2022-11-02T10:10:39.224Z,101602.94
2022-11-02T10:13:25.930Z,101605.44
2022-11-02T10:16:00.452Z,101608.72
2022-11-02T10:18:30.666Z,101599.66
2022-11-02T10:21:02.541Z,101605.44
2022-11-02T10:23:38.311Z,101599.25
2022-11-02T10:26:07.075Z,101602.75
2022-11-02T10:28:39.840Z,101604.41
2022-11-02T10:31:23.991Z,101610.78
2022-11-02T10:33:54.193Z,101608.28
2022-11-02T10:36:44.722Z,101616.06
2022-11-02T10:39:29.825Z,101626.72
2022-11-02T10:42:43.071Z,101616.22
2022-11-02T10:45:46.387Z,101628.69
2022-11-02T10:48:28.167Z,101633.97
2022-11-02T10:51:09.840Z,101631.66
2022-11-02T10:53:44.144Z,101635.53
2022-11-02T10:56:18.024Z,101651.59
2022-11-02T10:58:59.670Z,101663.94
2022-11-02T11:01:29.668Z,101658.03
2022-11-02T11:04:00.637Z,101663.84
2022-11-02T11:06:34.328Z,101671.03
2022-11-02T11:09:07.532Z,101675.97
2022-11-02T11:11:38.874Z,101695.94
2022-11-02T11:20:24.672Z,101696.91
2022-11-02T11:23:17.117Z,101693.63
2022-11-02T11:25:56.491Z,101698.59
2022-11-02T11:28:29.841Z,101694.69
2022-11-02T11:31:12.060Z,101709.50
2022-11-02T11:33:49.044Z,101710.53
2022-11-02T11:36:30.273Z,101710.13
2022-11-02T11:39:01.861Z,101702.09
2022-11-02T11:41:40.030Z,101694.28
2022-11-02T11:44:14.822Z,101694.06
2022-11-02T11:46:48.582Z,101704.28
2022-11-02T11:49:36.331Z,101710.84
2022-11-02T11:52:29.928Z,101723.97
2022-11-02T11:55:00.890Z,101715.78
2022-11-02T11:57:32.827Z,101709.78
2022-11-02T12:00:23.041Z,101718.16
2022-11-02T12:03:07.010Z,101724.78
2022-11-02T12:05:52.387Z,101720.91
2022-11-02T12:08:50.528Z,101726.06
2022-11-02T12:11:34.143Z,101728.13
2022-11-02T12:14:19.952Z,101730.56
2022-11-02T12:17:20.093Z,101720.63
2022-11-02T12:20:17.278Z,101740.53
2022-11-02T12:22:58.990Z,101740.50
2022-11-02T12:25:42.627Z,101725.81
2022-11-02T12:28:37.282Z,101740.56
2022-11-02T12:31:23.526Z,101745.09
2022-11-02T12:34:37.104Z,101761.13
2022-11-02T12:37:40.858Z,101754.19
2022-11-02T12:43:12.614Z,101747.66
2022-11-02T12:45:49.670Z,101755.91
2022-11-02T12:48:31.178Z,101761.28
2022-11-02T12:51:07.389Z,101772.59
2022-11-02T12:53:46.307Z,101764.78
2022-11-02T12:56:21.537Z,101781.03
2022-11-02T12:58:49.366Z,101777.16
2022-11-02T13:01:24.685Z,101775.31
2022-11-02T13:04:00.426Z,101773.69
2022-11-02T13:06:43.226Z,101772.63
2022-11-02T13:09:21.454Z,101779.03
2022-11-02T13:11:58.116Z,101777.38
2022-11-02T13:14:34.645Z,101786.00
2022-11-02T13:17:11.546Z,101779.88
2022-11-02T13:19:45.260Z,101775.75
2022-11-02T13:22:18.216Z,101783.19
2022-11-02T13:24:52.303Z,101787.31
2022-11-02T13:27:38.811Z,101789.56
2022-11-02T13:30:15.076Z,101781.16
2022-11-02T13:32:46.907Z,101777.88
2022-11-02T13:35:24.054Z,101783.66
2022-11-02T13:37:58.436Z,101785.25
2022-11-02T13:40:34.768Z,101778.72
2022-11-02T13:43:54.467Z,101787.75
2022-11-02T13:46:58.620Z,101786.13
2022-11-02T13:49:31.538Z,101786.75
2022-11-02T13:52:07.498Z,101787.13
2022-11-02T13:54:44.042Z,101798.44
2022-11-02T13:57:33.434Z,101797.03
2022-11-02T14:00:03.537Z,101801.53
2022-11-02T14:02:47.731Z,101795.59
2022-11-02T14:05:29.354Z,101792.28
2022-11-02T14:08:05.437Z,101804.22
2022-11-02T14:10:39.647Z,101809.13
2022-11-02T14:13:14.046Z,101813.66
2022-11-02T14:15:43.999Z,101809.53
2022-11-02T14:18:31.313Z,101810.31
2022-11-02T14:21:19.787Z,101816.09
2022-11-02T14:23:48.691Z,101815.25
2022-11-02T14:26:57.048Z,101826.00
2022-11-02T14:29:49.024Z,101830.91
2022-11-02T14:32:34.606Z,101817.75
2022-11-02T14:35:47.108Z,101824.56
2022-11-02T14:39:12.362Z,101816.75
2022-11-02T14:42:18.352Z,101823.97
2022-11-02T14:45:13.391Z,101821.09
2022-11-02T14:47:41.363Z,101816.56
2022-11-02T14:50:20.701Z,101816.16
2022-11-02T14:53:01.225Z,101822.09
2022-11-02T14:55:33.499Z,101821.50
2022-11-02T14:58:10.598Z,101817.38
2022-11-02T15:01:14.097Z,101809.59
2022-11-02T15:03:45.447Z,101817.63
2022-11-02T15:09:10.942Z,101813.25
2022-11-02T15:12:02.584Z,101819.63
2022-11-02T15:15:40.463Z,101820.41
2022-11-02T15:19:47.941Z,101825.53
2022-11-02T15:22:53.484Z,101832.09
2022-11-02T15:26:07.475Z,101824.31
2022-11-02T15:28:54.436Z,101832.88
2022-11-02T15:31:34.417Z,101834.53
2022-11-02T15:34:20.590Z,101839.03
2022-11-02T15:36:54.039Z,101838.66
2022-11-02T15:40:08.072Z,101838.41
2022-11-02T15:42:52.377Z,101841.47
2022-11-02T15:46:11.632Z,101838.19
2022-11-02T15:48:57.709Z,101832.47
2022-11-02T15:51:43.369Z,101830.81
2022-11-02T15:54:49.811Z,101843.91
2022-11-02T15:57:43.800Z,101852.31
2022-11-02T16:00:36.460Z,101844.25
2022-11-02T16:03:13.615Z,101843.41
2022-11-02T16:06:06.278Z,101849.94
2022-11-02T16:08:37.941Z,101838.88
2022-11-02T16:11:49.620Z,101844.72
2022-11-02T16:15:04.079Z,101843.25
2022-11-02T16:18:55.548Z,101835.19
2022-11-02T16:22:09.752Z,101841.88
2022-11-02T16:25:03.251Z,101839.31
2022-11-02T16:28:31.850Z,101840.50
2022-11-02T16:31:19.212Z,101835.13
2022-11-02T16:33:55.817Z,101845.72
2022-11-02T16:36:40.783Z,101838.28
2022-11-02T16:39:42.195Z,101843.16
2022-11-02T16:42:31.946Z,101842.53
2022-11-02T16:45:04.006Z,101843.53
2022-11-02T16:48:01.677Z,101847.59
2022-11-02T16:50:30.973Z,101839.00
2022-11-02T16:53:14.821Z,101845.31
2022-11-02T16:56:30.315Z,101841.59
2022-11-02T16:59:02.838Z,101847.50
2022-11-02T17:01:39.807Z,101837.22
2022-11-02T17:04:23.739Z,101845.94
2022-11-02T17:06:58.037Z,101843.69
2022-11-02T17:09:30.356Z,101855.06
2022-11-02T17:12:05.477Z,101853.19
2022-11-02T17:14:33.241Z,101849.69
2022-11-02T17:17:04.898Z,101851.25
2022-11-02T17:19:54.914Z,101857.72
2022-11-02T17:22:28.953Z,101851.13
2022-11-02T17:25:23.305Z,101841.44
2022-11-02T17:27:52.617Z,101846.19
2022-11-02T17:30:47.117Z,101846.84
2022-11-02T17:33:24.881Z,101847.69
2022-11-02T17:35:55.097Z,101849.06
2022-11-02T17:38:26.845Z,101848.81
2022-11-02T17:40:54.664Z,101848.81
2022-11-02T17:43:23.399Z,101846.34
2022-11-02T17:45:58.456Z,101845.50
2022-11-02T17:48:28.353Z,101849.81
2022-11-02T17:50:57.381Z,101851.00
2022-11-02T17:53:25.958Z,101848.34
2022-11-02T17:55:53.767Z,101851.81
2022-11-02T17:58:20.790Z,101857.34
2022-11-02T18:00:48.070Z,101851.09
2022-11-02T18:03:19.000Z,101857.59
2022-11-02T18:05:50.049Z,101855.13
2022-11-02T18:08:19.294Z,101851.00
2022-11-02T18:10:51.265Z,101851.38
2022-11-02T18:13:20.986Z,101851.72
2022-11-02T18:15:48.944Z,101848.44
2022-11-02T18:18:16.489Z,101843.47
2022-11-02T18:20:43.478Z,101845.50
2022-11-02T18:23:15.822Z,101831.94
2022-11-02T18:25:43.247Z,101827.00
2022-11-02T18:28:11.741Z,101830.19
2022-11-02T18:30:43.170Z,101828.94
2022-11-02T18:33:13.775Z,101827.25
2022-11-02T18:35:42.559Z,101823.19
2022-11-02T18:38:09.821Z,101821.50
2022-11-02T18:40:37.968Z,101820.31
2022-11-02T18:43:05.496Z,101819.50
2022-11-02T18:45:34.027Z,101817.88
2022-11-02T18:48:01.035Z,101826.00
2022-11-02T18:50:28.153Z,101820.88
2022-11-02T18:52:55.174Z,101820.25
2022-11-02T18:55:22.209Z,101811.25
2022-11-02T18:57:50.794Z,101811.25
2022-11-02T19:00:18.673Z,101807.59
2022-11-02T19:02:47.131Z,101816.56
2022-11-02T19:05:32.882Z,101806.97
2022-11-02T19:08:18.689Z,101809.97
2022-11-02T19:10:47.924Z,101808.72
2022-11-02T19:13:15.419Z,101806.69
2022-11-02T19:15:43.102Z,101814.66
2022-11-02T19:18:11.545Z,101818.66
2022-11-02T19:20:38.653Z,101809.41
2022-11-02T19:23:06.395Z,101800.81
2022-11-02T19:25:33.613Z,101804.03
2022-11-02T19:28:00.930Z,101798.25
2022-11-02T19:30:27.914Z,101806.38
2022-11-02T19:32:54.980Z,101793.31
2022-11-02T19:35:23.546Z,101796.13
2022-11-02T19:37:50.599Z,101788.34
2022-11-02T19:40:17.706Z,101788.00
2022-11-02T19:42:44.883Z,101787.19
2022-11-02T19:45:16.514Z,101791.28
2022-11-02T19:47:44.123Z,101776.56
2022-11-02T19:50:11.603Z,101774.72
2022-11-02T19:52:40.057Z,101777.38
2022-11-02T19:55:09.034Z,101769.22
2022-11-02T19:57:36.091Z,101768.41
2022-11-02T20:00:03.749Z,101766.38
2022-11-02T20:02:30.724Z,101760.28
2022-11-02T20:04:57.777Z,101753.38
2022-11-02T20:07:25.039Z,101762.25
2022-11-02T20:09:55.838Z,101754.56
2022-11-02T20:12:26.241Z,101761.19
2022-11-02T20:14:53.404Z,101753.47
2022-11-02T20:17:52.094Z,101761.69
2022-11-02T20:20:08.582Z,101755.03
2022-11-02T20:22:38.459Z,101762.59
2022-11-02T20:25:08.746Z,101756.28
2022-11-02T20:27:40.812Z,101745.31
2022-11-02T20:30:09.648Z,101748.22
2022-11-02T20:32:36.724Z,101747.84
2022-11-02T20:35:06.510Z,101744.53
2022-11-02T20:37:36.823Z,101746.56
2022-11-02T20:40:07.186Z,101744.53
2022-11-02T20:42:35.653Z,101737.22
2022-11-02T20:45:02.768Z,101742.53
2022-11-02T20:47:30.275Z,101737.22
2022-11-02T20:49:58.351Z,101736.78
2022-11-02T20:52:25.420Z,101734.13
2022-11-02T20:54:52.490Z,101737.59
2022-11-02T20:57:22.374Z,101733.91
2022-11-02T20:59:49.456Z,101733.09
2022-11-02T21:02:16.599Z,101728.97
2022-11-02T21:04:43.654Z,101722.75
2022-11-02T21:07:10.673Z,101721.03
2022-11-02T21:09:37.647Z,101721.59
2022-11-02T21:12:23.977Z,101720.69
2022-11-02T21:14:52.331Z,101716.50
2022-11-02T21:17:19.355Z,101713.94
2022-11-02T21:19:46.510Z,101711.03
2022-11-02T21:22:13.467Z,101717.69
2022-11-02T21:24:40.546Z,101723.53
2022-11-02T21:27:07.707Z,101724.66
2022-11-02T21:29:34.874Z,101717.78
2022-11-02T21:32:03.553Z,101709.50
2022-11-02T21:34:30.599Z,101709.06
2022-11-02T21:36:57.513Z,101715.44
2022-11-02T21:39:24.610Z,101713.31
2022-11-02T21:41:51.566Z,101705.91
2022-11-02T21:44:18.505Z,101699.34
2022-11-02T21:46:45.555Z,101707.66
2022-11-02T21:49:13.906Z,101704.34
2022-11-02T21:51:42.436Z,101702.34
2022-11-02T21:54:10.966Z,101692.47
2022-11-02T21:56:38.094Z,101692.19
2022-11-02T21:59:05.465Z,101692.53
2022-11-02T22:01:47.701Z,101687.03
2022-11-02T22:04:25.056Z,101683.59
2022-11-02T22:06:52.668Z,101674.97
2022-11-02T22:09:20.170Z,101688.50
2022-11-02T22:11:47.839Z,101687.72
2022-11-02T22:14:14.835Z,101683.28
2022-11-02T22:16:43.573Z,101690.66
2022-11-02T22:19:12.696Z,101690.91
2022-11-02T22:21:44.105Z,101685.50
2022-11-02T22:24:12.177Z,101671.63
2022-11-02T22:26:40.233Z,101672.06
2022-11-02T22:29:08.375Z,101675.84
2022-11-02T22:31:38.912Z,101675.50
2022-11-02T22:34:08.970Z,101666.53
2022-11-02T22:36:38.456Z,101665.25
2022-11-02T22:39:08.745Z,101657.44
2022-11-02T22:41:38.221Z,101654.28
2022-11-02T22:44:07.696Z,101656.41
2022-11-02T22:46:37.579Z,101648.59
2022-11-02T22:49:06.571Z,101641.69
2022-11-02T22:51:36.860Z,101645.97
2022-11-02T22:54:08.928Z,101645.59
2022-11-02T22:56:36.237Z,101636.13
2022-11-02T22:59:04.358Z,101640.06
2022-11-02T23:01:32.925Z,101637.50
2022-11-02T23:04:01.158Z,101636.78
2022-11-02T23:06:29.123Z,101629.00
2022-11-02T23:08:58.527Z,101627.38
2022-11-02T23:11:31.329Z,101623.88
2022-11-02T23:14:01.401Z,101624.06
2022-11-02T23:16:31.028Z,101608.97
2022-11-02T23:19:25.203Z,101605.97
2022-11-02T23:22:15.136Z,101605.03
2022-11-02T23:25:03.034Z,101599.47
2022-11-02T23:27:34.029Z,101611.25
2022-11-02T23:30:39.629Z,101601.81
2022-11-02T23:33:07.010Z,101598.88
2022-11-02T23:35:52.918Z,101596.63
2022-11-02T23:38:19.943Z,101596.63
2022-11-02T23:40:46.961Z,101578.06
2022-11-02T23:43:15.286Z,101574.41
2022-11-02T23:45:42.299Z,101572.13
2022-11-02T23:48:09.540Z,101564.97
2022-11-02T23:50:55.009Z,101569.09
2022-11-02T23:53:43.023Z,101572.75
2022-11-02T23:56:34.403Z,101561.34
2022-11-02T23:59:08.726Z,101562.97
